Time;durP1;ratioP1;P1;durP2;ratioP2;P2;SDS_P1;SDS_P2;PMS_P1;PMS_P2;Temp;Humidity;BMP_temperature;BMP_pressure;BME280_temperature;BME280_humidity;BME280_pressure;Samples;Min_cycle;Max_cycle;Signal;HPM_P1;HPM_P2
2023/10/28 00:00:54;;;;;;;20.50;5.15;;;;;;;-146.27;90.08;83284.22;5028368;28;20018;-77
2023/10/28 00:03:20;;;;;;;12.52;4.28;;;;;;;-146.27;90.05;83296.28;5030911;28;20083;-79
2023/10/28 00:05:46;;;;;;;13.02;5.00;;;;;;;-146.27;90.21;83272.19;5021780;28;20381;-78
2023/10/28 00:08:11;;;;;;;13.45;4.88;;;;;;;-146.27;90.22;83268.16;5023197;28;20025;-78
2023/10/28 00:10:37;;;;;;;15.57;4.90;;;;;;;-146.27;90.26;83280.22;5031188;28;20053;-77
2023/10/28 00:13:04;;;;;;;12.25;4.22;;;;;;;-146.27;90.07;83266.16;5030762;28;20067;-77
2023/10/28 00:15:30;;;;;;;14.13;4.57;;;;;;;-146.27;90.15;83282.22;5034865;28;20033;-78
2023/10/28 00:17:57;;;;;;;21.35;4.80;;;;;;;-146.27;90.21;83240.03;5036364;28;20538;-78
2023/10/28 00:20:22;;;;;;;15.70;4.32;;;;;;;-146.27;90.39;83272.19;5018229;28;20101;-77
2023/10/28 00:22:53;;;;;;;14.65;4.93;;;;;;;-146.27;90.42;83290.25;5022591;28;20112;-77
2023/10/28 00:25:22;;;;;;;16.75;4.63;;;;;;;-146.27;90.18;83232.00;5028744;28;20044;-77
2023/10/28 00:27:48;;;;;;;12.65;4.38;;;;;;;-146.27;90.28;83288.25;5032700;28;20137;-78
2023/10/28 00:30:14;;;;;;;15.38;4.55;;;;;;;-146.27;90.50;83292.28;5026679;28;20087;-78
2023/10/28 00:32:41;;;;;;;19.65;4.68;;;;;;;-146.27;90.48;83288.25;5028666;28;20083;-78
2023/10/28 00:35:07;;;;;;;18.38;4.72;;;;;;;-146.27;90.47;83286.25;5027948;28;20041;-78
2023/10/28 00:37:36;;;;;;;17.83;5.20;;;;;;;-146.27;90.13;83252.09;5023281;28;20789;-78
2023/10/28 00:40:05;;;;;;;15.15;4.47;;;;;;;-146.27;89.97;83292.28;5029940;28;20059;-78
2023/10/28 00:42:33;;;;;;;16.17;4.55;;;;;;;-146.27;89.89;83274.19;5029185;28;20061;-78
2023/10/28 00:44:58;;;;;;;18.00;4.70;;;;;;;-146.27;89.86;83276.19;5025174;28;20029;-77
2023/10/28 00:47:24;;;;;;;13.55;4.07;;;;;;;-146.27;89.95;83308.34;5031402;28;20473;-77
2023/10/28 00:49:51;;;;;;;11.55;4.60;;;;;;;-146.27;89.96;83276.19;5039269;28;20025;-78
2023/10/28 00:52:19;;;;;;;17.63;5.00;;;;;;;-146.27;89.90;83304.31;5038538;28;20017;-77
2023/10/28 00:54:47;;;;;;;15.32;5.28;;;;;;;-146.27;89.85;83308.34;5032828;28;20032;-77
2023/10/28 00:57:17;;;;;;;16.60;5.25;;;;;;;-146.27;89.96;83276.19;5031653;28;20171;-77
2023/10/28 00:59:43;;;;;;;14.77;4.95;;;;;;;-146.27;89.80;83199.84;5023446;28;20021;-78
2023/10/28 01:02:15;;;;;;;17.13;5.38;;;;;;;-146.27;89.93;83292.28;5041491;28;20029;-77
2023/10/28 01:04:40;;;;;;;12.13;4.30;;;;;;;-146.27;89.98;83284.22;5032321;28;20029;-77
2023/10/28 01:07:06;;;;;;;17.85;5.05;;;;;;;-146.27;89.88;83294.28;5025738;28;20040;-78
2023/10/28 01:09:32;;;;;;;12.40;4.70;;;;;;;-146.27;90.06;83304.31;5023765;28;20040;-77
2023/10/28 01:11:57;;;;;;;18.90;5.00;;;;;;;-146.27;90.11;83298.28;5030250;28;20065;-77
2023/10/28 01:14:23;;;;;;;19.15;5.32;;;;;;;-146.27;90.11;83320.41;5032198;28;20564;-78
2023/10/28 01:16:49;;;;;;;14.15;4.85;;;;;;;-146.27;90.04;83302.31;5026380;28;20041;-79
2023/10/28 01:19:15;;;;;;;14.13;5.18;;;;;;;-146.27;90.17;83304.31;5028667;28;20024;-77
2023/10/28 01:21:41;;;;;;;19.10;5.13;;;;;;;-146.27;90.19;83312.34;5035110;28;20032;-77
2023/10/28 01:24:07;;;;;;;16.50;5.32;;;;;;;-146.27;90.11;83332.44;5023018;28;20030;-76
2023/10/28 01:26:33;;;;;;;12.05;4.72;;;;;;;-146.27;90.02;83312.34;5032932;28;20075;-78
2023/10/28 01:29:00;;;;;;;19.35;4.85;;;;;;;-146.27;90.14;83328.44;5026742;28;20489;-77
2023/10/28 01:31:26;;;;;;;25.60;5.65;;;;;;;-146.27;90.23;83268.16;5029391;28;20034;-77
2023/10/28 01:33:51;;;;;;;16.45;6.05;;;;;;;-146.27;90.35;83292.28;5020069;28;20469;-77
2023/10/28 01:36:17;;;;;;;29.05;6.45;;;;;;;-146.27;90.21;83268.16;5025795;28;20028;-78
2023/10/28 01:38:42;;;;;;;22.15;6.43;;;;;;;-146.27;90.29;83288.25;5029987;28;20048;-77
2023/10/28 01:41:10;;;;;;;12.43;5.22;;;;;;;-146.27;90.30;83266.16;5030719;28;20045;-78
2023/10/28 01:43:36;;;;;;;24.05;6.07;;;;;;;-146.27;90.58;83292.28;5032283;28;20100;-77
2023/10/28 01:46:01;;;;;;;24.17;6.10;;;;;;;-146.27;90.60;83312.34;5030558;28;20032;-77
2023/10/28 01:48:27;;;;;;;26.50;6.30;;;;;;;-146.27;90.53;83256.09;5025879;28;20474;-79
2023/10/28 01:50:52;;;;;;;26.58;6.90;;;;;;;-146.27;90.42;83252.09;5025402;28;20025;-78
2023/10/28 01:53:17;;;;;;;21.92;6.63;;;;;;;-146.27;90.41;83223.94;5020254;28;20068;-76
2023/10/28 01:55:44;;;;;;;25.38;7.38;;;;;;;-146.27;90.43;83272.19;5034075;28;20112;-77
2023/10/28 01:58:10;;;;;;;22.23;7.35;;;;;;;-146.27;90.86;83356.56;5046818;28;20079;-78
2023/10/28 02:00:35;;;;;;;22.55;6.70;;;;;;;-146.27;90.55;83276.19;5025069;28;20040;-77
2023/10/28 02:03:02;;;;;;;18.45;6.97;;;;;;;-146.27;90.85;83300.31;5032603;28;20433;-77
2023/10/28 02:05:27;;;;;;;22.48;7.60;;;;;;;-146.27;91.02;83372.63;5027889;28;20136;-76
2023/10/28 02:07:53;;;;;;;22.83;7.60;;;;;;;-146.27;90.93;83260.13;5028505;28;20112;-78
2023/10/28 02:10:18;;;;;;;19.50;7.30;;;;;;;-146.27;91.20;83264.13;5030531;28;20033;-77
2023/10/28 02:12:43;;;;;;;23.33;7.43;;;;;;;-146.27;91.69;83272.19;5029600;28;20033;-77
2023/10/28 02:15:09;;;;;;;22.67;7.78;;;;;;;-146.27;91.22;83246.06;5022171;28;20025;-77
2023/10/28 02:17:35;;;;;;;13.95;7.07;;;;;;;-146.27;90.78;83260.13;5031496;28;20051;-76
2023/10/28 02:20:03;;;;;;;23.75;7.35;;;;;;;-146.27;91.41;83280.22;5025403;28;20434;-76
2023/10/28 02:22:32;;;;;;;13.48;6.13;;;;;;;-146.27;91.06;83234.00;5023199;28;20029;-76
2023/10/28 02:24:57;;;;;;;26.83;6.55;;;;;;;-146.27;90.80;83260.13;5027608;28;20040;-77
2023/10/28 02:27:23;;;;;;;23.45;6.35;;;;;;;-146.27;90.92;83205.88;5029214;28;20027;-77
2023/10/28 02:29:48;;;;;;;22.33;6.53;;;;;;;-146.27;90.76;83217.94;5027440;28;20036;-77
2023/10/28 02:32:14;;;;;;;17.40;6.20;;;;;;;-146.27;90.71;83244.03;5028009;28;20504;-76
2023/10/28 02:34:41;;;;;;;17.65;6.70;;;;;;;-146.27;90.11;83191.81;5029034;28;20040;-77
2023/10/28 02:37:06;;;;;;;24.02;7.05;;;;;;;-146.27;89.83;83179.75;5039086;28;20024;-77
2023/10/28 02:39:32;;;;;;;22.77;6.35;;;;;;;-146.27;89.73;83115.47;5042494;28;20025;-77
2023/10/28 02:41:57;;;;;;;27.63;6.07;;;;;;;-146.27;89.86;83203.88;5027951;28;20400;-77
2023/10/28 02:44:23;;;;;;;12.52;6.10;;;;;;;-146.27;89.65;83211.91;5021293;28;20037;-76
2023/10/28 02:46:48;;;;;;;15.15;5.90;;;;;;;-146.27;89.75;83197.84;5026102;28;20025;-77
2023/10/28 02:49:13;;;;;;;15.15;5.70;;;;;;;-146.27;89.70;83215.91;5027638;28;20037;-76
2023/10/28 02:51:39;;;;;;;15.00;6.13;;;;;;;-146.27;89.45;83244.03;5024754;28;20108;-76
2023/10/28 02:54:05;;;;;;;15.65;5.82;;;;;;;-146.27;89.95;83227.97;5022967;28;20036;-77
2023/10/28 02:56:30;;;;;;;14.45;6.13;;;;;;;-146.27;89.87;83169.69;5027099;28;20025;-77
2023/10/28 02:58:56;;;;;;;21.73;5.80;;;;;;;-146.27;89.67;83209.88;5024858;28;20552;-76
2023/10/28 03:01:22;;;;;;;16.33;5.80;;;;;;;-146.27;89.59;83308.34;5025262;28;20061;-76
2023/10/28 03:03:48;;;;;;;18.58;5.93;;;;;;;-146.27;89.73;83201.84;5038861;28;20117;-77
2023/10/28 03:06:13;;;;;;;13.32;6.00;;;;;;;-146.27;89.64;83211.91;5027051;28;20025;-76
2023/10/28 03:08:38;;;;;;;13.25;6.07;;;;;;;-146.27;89.62;83199.84;5021896;28;20029;-76
2023/10/28 03:11:04;;;;;;;17.55;6.00;;;;;;;-146.27;90.42;83252.09;5022234;28;20025;-76
2023/10/28 03:13:30;;;;;;;16.88;6.15;;;;;;;-146.27;90.62;83225.97;5021304;28;20061;-77
2023/10/28 03:15:56;;;;;;;19.95;5.82;;;;;;;-146.27;90.06;83177.75;5021842;28;20124;-77
2023/10/28 03:18:22;;;;;;;18.20;5.75;;;;;;;-146.27;91.07;83310.34;5029923;28;20033;-77
2023/10/28 03:20:47;;;;;;;17.60;5.60;;;;;;;-146.27;90.40;83252.09;5027227;28;20025;-76
2023/10/28 03:23:13;;;;;;;16.60;7.03;;;;;;;-146.27;89.86;83225.97;5020689;28;20026;-76
2023/10/28 03:25:38;;;;;;;12.50;5.47;;;;;;;-146.27;90.00;83244.03;5025371;28;20041;-77
2023/10/28 03:28:04;;;;;;;16.65;5.70;;;;;;;-146.27;89.04;83191.81;5024622;28;20147;-77
2023/10/28 03:30:30;;;;;;;13.85;4.88;;;;;;;-146.27;88.60;83197.84;5032005;28;20389;-77
2023/10/28 03:32:56;;;;;;;11.30;4.30;;;;;;;-146.27;89.07;83199.84;5032090;28;20017;-77
2023/10/28 03:35:21;;;;;;;7.70;4.80;;;;;;;-146.27;88.91;83256.09;5039131;28;20673;-77
2023/10/28 03:37:46;;;;;;;16.95;4.10;;;;;;;-146.27;88.38;83229.97;5031360;28;20030;-77
2023/10/28 03:40:13;;;;;;;7.80;4.35;;;;;;;-146.27;88.11;83191.81;5043851;28;20113;-77
2023/10/28 03:42:39;;;;;;;12.88;4.35;;;;;;;-146.27;88.03;83193.81;5044905;28;20108;-77
2023/10/28 03:45:07;;;;;;;9.82;4.05;;;;;;;-146.27;88.48;83236.00;5042188;28;20025;-77
2023/10/28 03:47:33;;;;;;;12.23;4.25;;;;;;;-146.27;88.03;83169.69;5033192;28;20095;-77
2023/10/28 03:49:59;;;;;;;8.15;3.75;;;;;;;-146.27;87.77;83201.84;5028531;28;20065;-77
2023/10/28 03:52:25;;;;;;;10.57;4.05;;;;;;;-146.27;87.80;83133.53;5038053;28;20068;-76
2023/10/28 03:54:51;;;;;;;11.75;4.18;;;;;;;-146.27;87.78;83171.72;5029603;28;20030;-76
2023/10/28 03:57:17;;;;;;;10.73;3.47;;;;;;;-146.27;87.83;83223.94;5030364;28;20383;-76
2023/10/28 03:59:45;;;;;;;8.95;3.33;;;;;;;-146.27;87.29;83211.91;5032542;28;20030;-76
2023/10/28 04:02:11;;;;;;;10.85;3.65;;;;;;;-146.27;87.33;83225.97;5026320;28;20547;-76
2023/10/28 04:04:36;;;;;;;9.65;3.78;;;;;;;-146.27;87.47;83227.97;5030048;28;20021;-76
2023/10/28 04:07:01;;;;;;;4.20;2.90;;;;;;;-146.27;86.86;83199.84;5029935;28;20028;-77
2023/10/28 04:09:26;;;;;;;7.50;2.85;;;;;;;-146.27;86.44;83207.88;5033420;28;20031;-76
2023/10/28 04:11:52;;;;;;;10.68;3.55;;;;;;;-146.27;86.48;83183.78;5032349;28;20067;-76
2023/10/28 04:14:17;;;;;;;10.07;3.28;;;;;;;-146.27;86.46;83183.78;5027792;28;20021;-76
2023/10/28 04:16:43;;;;;;;6.75;3.75;;;;;;;-146.27;86.66;83187.78;5038085;28;20052;-76
2023/10/28 04:19:08;;;;;;;7.60;4.07;;;;;;;-146.27;86.75;83183.78;5038081;28;20091;-76
2023/10/28 04:21:33;;;;;;;6.57;3.47;;;;;;;-146.27;86.68;83195.81;5032604;28;20112;-76
2023/10/28 04:23:59;;;;;;;9.50;4.57;;;;;;;-146.27;86.51;83187.78;5040816;28;20155;-76
2023/10/28 04:26:24;;;;;;;6.47;4.30;;;;;;;-146.27;86.64;83201.84;5040216;28;20025;-77
2023/10/28 04:28:50;;;;;;;8.75;4.50;;;;;;;-146.27;86.86;83193.81;5029301;28;20096;-77
2023/10/28 04:31:15;;;;;;;9.23;5.25;;;;;;;-146.27;86.56;83171.72;5034902;28;20047;-77
2023/10/28 04:33:41;;;;;;;13.43;4.75;;;;;;;-146.27;86.52;83199.84;5025554;28;20493;-77
2023/10/28 04:36:10;;;;;;;11.60;5.10;;;;;;;-146.27;87.01;83167.69;5024472;28;20025;-76
2023/10/28 04:38:39;;;;;;;9.10;5.05;;;;;;;-146.27;86.93;83183.78;5028967;28;20025;-76
2023/10/28 04:41:04;;;;;;;15.95;5.38;;;;;;;-146.27;86.95;83199.84;5037224;28;20128;-76
2023/10/28 04:43:29;;;;;;;9.85;4.85;;;;;;;-146.27;87.10;83159.66;5024512;28;20116;-76
2023/10/28 04:45:55;;;;;;;9.55;4.75;;;;;;;-146.27;87.02;83171.72;5017464;28;20036;-76
2023/10/28 04:48:21;;;;;;;14.65;4.78;;;;;;;-146.27;86.74;83169.69;5025254;28;20120;-76
2023/10/28 04:50:48;;;;;;;15.63;4.97;;;;;;;-146.27;87.09;83213.91;5038497;28;20021;-77
2023/10/28 04:53:14;;;;;;;11.63;4.70;;;;;;;-146.27;86.64;83171.72;5024233;28;20021;-77
2023/10/28 04:55:41;;;;;;;9.50;4.38;;;;;;;-146.27;86.65;83193.81;5032735;28;20029;-77
2023/10/28 04:58:06;;;;;;;12.75;4.53;;;;;;;-146.27;86.86;83187.78;5033692;28;20048;-76
2023/10/28 05:00:32;;;;;;;12.40;4.20;;;;;;;-146.27;86.99;83175.72;5030537;28;20060;-77
2023/10/28 05:02:57;;;;;;;15.85;4.90;;;;;;;-146.27;87.13;83153.63;5038971;28;20030;-76
2023/10/28 05:05:23;;;;;;;12.93;5.18;;;;;;;-146.27;86.78;83175.72;5035577;28;20061;-76
2023/10/28 05:07:49;;;;;;;10.75;4.18;;;;;;;-146.27;86.73;83185.78;5035212;28;20088;-76
2023/10/28 05:10:14;;;;;;;10.13;5.15;;;;;;;-146.27;87.09;83175.72;5029906;28;20443;-76
2023/10/28 05:12:40;;;;;;;11.88;4.43;;;;;;;-146.27;87.29;83133.53;5025038;28;20022;-76
2023/10/28 05:15:10;;;;;;;11.50;5.43;;;;;;;-146.27;87.18;83175.72;5029663;28;20025;-76
2023/10/28 05:17:36;;;;;;;10.23;5.15;;;;;;;-146.27;87.36;83207.88;5023670;28;20405;-76
2023/10/28 05:20:06;;;;;;;11.85;5.97;;;;;;;-146.27;87.03;83145.59;5030913;28;20397;-76
2023/10/28 05:22:35;;;;;;;9.15;5.10;;;;;;;-146.27;87.23;83195.81;5030185;28;20041;-76
2023/10/28 05:25:00;;;;;;;8.95;5.10;;;;;;;-146.27;87.13;83139.56;5029879;28;20021;-75
2023/10/28 05:27:26;;;;;;;10.70;5.40;;;;;;;-146.27;87.28;83153.63;5023926;28;20057;-77
2023/10/28 05:29:51;;;;;;;13.68;5.82;;;;;;;-146.27;87.20;83155.63;5030796;28;20049;-75
2023/10/28 05:32:16;;;;;;;9.98;5.15;;;;;;;-146.27;87.26;83173.72;5026513;28;20025;-76
2023/10/28 05:34:42;;;;;;;12.15;4.43;;;;;;;-146.27;87.44;83167.69;5031143;28;20026;-77
2023/10/28 05:37:07;;;;;;;12.75;5.72;;;;;;;-146.27;87.44;83161.66;5023806;28;20017;-76
2023/10/28 05:39:34;;;;;;;12.10;5.10;;;;;;;-146.27;87.68;83149.63;5032995;28;20385;-73
2023/10/28 05:42:00;;;;;;;9.35;5.22;;;;;;;-146.27;87.50;83135.53;5026516;28;20025;-74
2023/10/28 05:44:26;;;;;;;8.77;5.15;;;;;;;-146.27;87.41;83133.53;5023500;28;20083;-75
2023/10/28 05:46:51;;;;;;;9.38;5.03;;;;;;;-146.27;87.47;83137.56;5016726;28;20030;-72
2023/10/28 05:49:16;;;;;;;12.32;5.07;;;;;;;-146.27;87.39;83171.72;5026800;28;20029;-75
2023/10/28 05:51:43;;;;;;;12.68;5.88;;;;;;;-146.27;87.44;83087.31;5016468;28;20064;-74
2023/10/28 05:54:11;;;;;;;12.45;5.50;;;;;;;-146.27;87.27;83131.53;5042386;28;20022;-74
2023/10/28 05:56:36;;;;;;;11.25;5.47;;;;;;;-146.27;87.46;83153.63;5025632;28;20033;-74
2023/10/28 05:59:01;;;;;;;15.93;5.05;;;;;;;-146.27;87.23;83177.75;5023570;28;20061;-74
2023/10/28 06:01:27;;;;;;;12.00;5.30;;;;;;;-146.27;87.55;83107.41;5028144;28;20040;-74
2023/10/28 06:03:54;;;;;;;18.55;5.93;;;;;;;-146.27;87.44;83133.53;5028603;28;20021;-73
2023/10/28 06:06:21;;;;;;;11.43;6.70;;;;;;;-146.27;87.51;83155.63;5029963;28;20036;-74
2023/10/28 06:08:47;;;;;;;17.90;5.85;;;;;;;-146.27;87.59;83137.56;5029391;28;20044;-73
2023/10/28 06:11:13;;;;;;;12.98;6.60;;;;;;;-146.27;87.67;83155.63;5031493;28;20111;-74
2023/10/28 06:13:38;;;;;;;13.35;6.28;;;;;;;-146.27;87.54;83167.69;5031294;28;20112;-73
2023/10/28 06:16:04;;;;;;;11.02;6.25;;;;;;;-146.27;87.71;83191.81;5030047;28;20107;-73
2023/10/28 06:18:32;;;;;;;15.90;5.97;;;;;;;-146.27;87.63;83151.63;5032565;28;20056;-76
2023/10/28 06:20:57;;;;;;;14.00;6.32;;;;;;;-146.27;87.60;83159.66;5036921;28;20495;-75
2023/10/28 06:23:23;;;;;;;18.85;6.70;;;;;;;-146.27;87.59;83127.50;5020062;28;20029;-77
2023/10/28 06:25:48;;;;;;;16.33;6.57;;;;;;;-146.27;87.58;83151.63;5027868;28;20017;-77
2023/10/28 06:28:13;;;;;;;14.98;6.57;;;;;;;-146.27;87.83;83149.63;5026043;28;20068;-76
2023/10/28 06:30:49;;;;;;;10.95;6.05;;;;;;;-146.27;87.69;83171.72;5030799;28;20017;-77
2023/10/28 06:33:14;;;;;;;11.23;6.60;;;;;;;-146.27;87.63;83135.53;5022150;28;20084;-76
2023/10/28 06:35:40;;;;;;;15.15;6.95;;;;;;;-146.27;87.83;83135.53;5034808;28;20030;-76
2023/10/28 06:38:06;;;;;;;15.10;6.35;;;;;;;-146.27;87.83;83167.69;5031788;28;20035;-76
2023/10/28 06:40:32;;;;;;;16.75;6.03;;;;;;;-146.27;87.67;83159.66;5039156;28;20052;-76
2023/10/28 06:42:58;;;;;;;14.65;5.85;;;;;;;-146.27;87.84;83109.44;5023011;28;20375;-77
2023/10/28 06:45:23;;;;;;;16.02;6.68;;;;;;;-146.27;87.65;83133.53;5021436;28;20026;-76
2023/10/28 06:47:50;;;;;;;18.55;5.93;;;;;;;-146.27;87.75;83103.41;5035006;28;20117;-76
2023/10/28 06:50:19;;;;;;;10.25;5.22;;;;;;;-146.27;87.55;83119.47;5018321;28;20036;-76
2023/10/28 06:52:45;;;;;;;23.30;6.00;;;;;;;-146.27;87.33;83111.44;5017367;28;20366;-75
2023/10/28 06:55:12;;;;;;;16.80;5.63;;;;;;;-146.27;87.51;83155.63;5025280;28;20091;-76
2023/10/28 06:57:38;;;;;;;16.50;5.75;;;;;;;-146.27;87.58;83115.47;5019834;28;20049;-78
2023/10/28 07:00:05;;;;;;;14.35;5.05;;;;;;;-146.27;87.34;83123.50;5020894;28;20120;-77
2023/10/28 07:02:30;;;;;;;13.68;4.75;;;;;;;-146.27;87.59;83107.41;5019075;28;20053;-77
2023/10/28 07:04:55;;;;;;;15.85;4.78;;;;;;;-146.27;87.47;83107.41;5020771;28;20064;-76
2023/10/28 07:07:21;;;;;;;18.13;4.70;;;;;;;-146.27;87.40;83105.41;5034263;28;20378;-77
2023/10/28 07:09:46;;;;;;;14.65;4.80;;;;;;;-146.27;87.51;83079.28;5030906;28;20079;-77
2023/10/28 07:12:12;;;;;;;19.00;4.70;;;;;;;-146.27;87.32;83129.53;5031600;28;20079;-77
2023/10/28 07:14:37;;;;;;;20.92;5.88;;;;;;;-146.27;87.51;83143.59;5031505;28;20072;-77
2023/10/28 07:17:03;;;;;;;15.88;4.85;;;;;;;-146.27;87.72;83105.41;5033617;28;20124;-76
2023/10/28 07:19:28;;;;;;;11.32;4.82;;;;;;;-146.27;87.55;83095.38;5026852;28;20033;-77
2023/10/28 07:21:53;;;;;;;13.15;4.32;;;;;;;-146.27;87.52;83089.34;5033264;28;20017;-78
2023/10/28 07:24:20;;;;;;;14.55;4.90;;;;;;;-146.27;87.28;83123.50;5038636;28;20115;-78
2023/10/28 07:26:46;;;;;;;13.05;4.72;;;;;;;-146.27;87.44;83075.28;5031641;28;20451;-77
2023/10/28 07:29:11;;;;;;;10.52;4.18;;;;;;;-146.27;87.41;83087.31;5027593;28;20112;-77
2023/10/28 07:31:38;;;;;;;14.05;4.68;;;;;;;-146.27;87.50;83083.31;5035665;28;20611;-78
2023/10/28 07:34:07;;;;;;;9.15;3.67;;;;;;;-146.27;87.16;83119.47;5034200;28;20029;-77
2023/10/28 07:36:33;;;;;;;12.88;3.60;;;;;;;-146.27;87.08;83023.03;5032393;28;20072;-76
2023/10/28 07:39:03;;;;;;;9.27;4.35;;;;;;;-146.27;87.16;83055.19;5031424;28;20037;-76
2023/10/28 07:41:29;;;;;;;14.40;3.83;;;;;;;-146.27;87.16;83047.16;5031689;28;20018;-76
2023/10/28 07:43:58;;;;;;;13.15;3.78;;;;;;;-146.27;87.12;83077.28;5032295;28;20517;-76
2023/10/28 07:46:29;;;;;;;13.35;3.97;;;;;;;-146.27;87.10;83087.31;5028728;28;20021;-75
2023/10/28 07:48:55;;;;;;;7.32;3.42;;;;;;;-146.27;87.01;83081.31;5035255;28;20035;-75
2023/10/28 07:51:21;;;;;;;10.57;3.63;;;;;;;-146.27;86.97;83035.09;5031373;28;20393;-76
2023/10/28 07:53:49;;;;;;;11.73;2.92;;;;;;;-146.27;87.19;83069.25;5032959;28;20029;-75
2023/10/28 07:56:19;;;;;;;13.95;4.20;;;;;;;-146.27;87.34;83049.16;5034774;28;20473;-75
2023/10/28 07:58:45;;;;;;;11.40;4.00;;;;;;;-146.27;87.33;83049.16;5032283;28;20116;-76
2023/10/28 08:01:17;;;;;;;10.45;3.55;;;;;;;-146.27;86.92;83043.13;5029651;28;20187;-76
2023/10/28 08:03:45;;;;;;;10.40;2.95;;;;;;;-146.27;87.38;83067.25;5033429;28;20491;-75
2023/10/28 08:06:11;;;;;;;18.75;3.22;;;;;;;-146.27;87.34;83039.09;5036284;28;20060;-78
2023/10/28 08:08:47;;;;;;;12.85;3.35;;;;;;;-146.27;87.26;83031.06;5034284;28;20034;-78
2023/10/28 08:11:13;;;;;;;11.40;3.60;;;;;;;-146.27;87.33;83055.19;5039096;28;20028;-78
2023/10/28 08:13:39;;;;;;;18.05;3.25;;;;;;;-146.27;87.38;83039.09;5026950;28;20105;-73
2023/10/28 08:16:09;;;;;;;15.15;3.42;;;;;;;-146.27;87.22;83029.06;5025843;28;20051;-73
2023/10/28 08:18:37;;;;;;;18.40;3.25;;;;;;;-146.27;87.38;83021.03;5032973;28;20566;-79
2023/10/28 08:21:03;;;;;;;13.10;3.35;;;;;;;-146.27;87.02;83006.97;5034773;28;20912;-77
2023/10/28 08:23:31;;;;;;;10.05;3.20;;;;;;;-146.27;87.00;83047.16;5039883;28;20082;-77
2023/10/28 08:25:57;;;;;;;10.25;2.80;;;;;;;-146.27;87.37;83031.06;5031744;28;20020;-77
2023/10/28 08:28:22;;;;;;;11.23;2.92;;;;;;;-146.27;87.64;83071.25;5043449;28;20041;-77
2023/10/28 08:30:48;;;;;;;14.35;3.58;;;;;;;-146.27;87.23;83004.94;5035187;28;20417;-77
2023/10/28 08:33:13;;;;;;;11.70;3.50;;;;;;;-146.27;86.97;83015.00;5038534;28;20371;-78
2023/10/28 08:35:38;;;;;;;12.32;2.80;;;;;;;-146.27;87.10;83035.09;5036093;28;20024;-78
2023/10/28 08:38:07;;;;;;;6.97;3.08;;;;;;;-146.27;86.79;82974.81;5045429;28;20431;-76
2023/10/28 08:40:33;;;;;;;10.13;2.70;;;;;;;-146.27;86.72;83039.09;5031963;28;20099;-78
2023/10/28 08:42:58;;;;;;;7.95;3.10;;;;;;;-146.27;86.78;83035.09;5029552;28;20032;-78
2023/10/28 08:45:26;;;;;;;13.35;3.03;;;;;;;-146.27;86.82;83017.00;5023042;28;20029;-77
2023/10/28 08:47:53;;;;;;;17.05;3.15;;;;;;;-146.27;86.80;83010.97;5029242;28;20040;-78
2023/10/28 08:50:22;;;;;;;18.92;3.60;;;;;;;-146.27;86.87;83004.94;5023492;28;20395;-78
2023/10/28 08:52:48;;;;;;;11.60;3.53;;;;;;;-146.27;86.39;82994.91;5042014;28;20462;-77
2023/10/28 08:55:14;;;;;;;10.00;2.70;;;;;;;-146.27;86.34;83025.03;5035656;28;20029;-79
2023/10/28 08:57:46;;;;;;;8.80;3.70;;;;;;;-146.27;85.96;82966.78;5029624;28;20036;-77
2023/10/28 09:00:16;;;;;;;4.77;2.10;;;;;;;-146.27;86.05;82994.91;5028598;28;20025;-78
2023/10/28 09:02:47;;;;;;;9.18;2.78;;;;;;;-146.27;85.97;82942.66;5032994;28;20025;-77
2023/10/28 09:05:14;;;;;;;12.50;2.97;;;;;;;-146.27;86.05;83019.03;5030334;28;20421;-77
2023/10/28 09:07:45;;;;;;;9.65;2.20;;;;;;;-146.27;86.25;83000.94;5029898;28;20017;-80
2023/10/28 09:10:12;;;;;;;9.27;2.70;;;;;;;-146.27;85.87;82970.81;5023130;28;20033;-75
2023/10/28 09:12:38;;;;;;;12.38;2.72;;;;;;;-146.27;85.93;82994.91;5034001;28;20021;-73
2023/10/28 09:15:04;;;;;;;14.32;2.53;;;;;;;-146.27;85.51;82962.75;5025754;28;20033;-73
2023/10/28 09:17:30;;;;;;;9.82;2.08;;;;;;;-146.27;85.21;82974.81;5029220;28;20046;-74
2023/10/28 09:19:56;;;;;;;3.85;2.47;;;;;;;-146.27;85.79;83059.19;5032153;28;20088;-74
2023/10/28 09:22:23;;;;;;;9.35;2.60;;;;;;;-146.27;85.09;82956.75;5031756;28;20041;-73
2023/10/28 09:24:52;;;;;;;12.02;2.83;;;;;;;-146.27;85.26;83027.06;5039942;28;20029;-76
2023/10/28 09:27:19;;;;;;;4.53;2.30;;;;;;;-146.27;84.31;82898.47;5034430;28;20480;-76
2023/10/28 09:29:45;;;;;;;9.13;2.58;;;;;;;-146.27;84.96;83017.00;5040989;28;20013;-75
2023/10/28 09:32:10;;;;;;;11.10;2.20;;;;;;;-146.27;84.34;82946.69;5027323;28;20031;-74
2023/10/28 09:34:38;;;;;;;13.00;2.33;;;;;;;-146.27;83.75;82944.69;5045882;28;20519;-75
2023/10/28 09:37:04;;;;;;;8.38;1.88;;;;;;;-146.27;84.30;83017.00;5033590;28;20113;-74
2023/10/28 09:39:33;;;;;;;8.40;2.10;;;;;;;-146.27;84.05;82928.59;5044729;28;20021;-73
2023/10/28 09:41:59;;;;;;;11.73;2.20;;;;;;;-146.27;83.25;82914.53;5024865;28;20034;-74
2023/10/28 09:44:26;;;;;;;12.10;2.28;;;;;;;-146.27;83.34;82910.53;5031330;28;20029;-74
2023/10/28 09:46:59;;;;;;;7.85;2.35;;;;;;;-146.27;83.45;82950.72;5034492;28;20496;-75
2023/10/28 09:49:29;;;;;;;11.57;2.42;;;;;;;-146.27;83.70;82946.69;5039464;28;20083;-75
2023/10/28 09:52:10;;;;;;;8.55;1.90;;;;;;;-146.27;83.56;82888.44;5037376;28;20454;-76
2023/10/28 09:54:36;;;;;;;6.90;2.35;;;;;;;-146.27;82.76;82906.50;5040411;28;20078;-74
2023/10/28 09:57:03;;;;;;;5.22;2.00;;;;;;;-146.27;83.27;82890.44;5045557;28;20036;-74
2023/10/28 09:59:42;;;;;;;9.93;2.40;;;;;;;-146.27;83.12;82948.69;5034949;28;20427;-75
2023/10/28 10:02:26;;;;;;;8.23;3.15;;;;;;;-146.27;83.38;82980.84;5019845;28;20041;-72
2023/10/28 10:05:08;;;;;;;5.35;2.20;;;;;;;-146.27;82.77;82906.50;5015372;28;20116;-72
2023/10/28 10:07:34;;;;;;;9.63;2.25;;;;;;;-146.27;82.92;82930.63;5030679;28;20904;-74
2023/10/28 10:10:16;;;;;;;10.18;3.28;;;;;;;-146.27;83.07;82942.66;5029582;28;20444;-72
2023/10/28 10:12:42;;;;;;;11.75;2.78;;;;;;;-146.27;82.55;82910.53;5030380;28;20029;-74
2023/10/28 10:15:10;;;;;;;4.50;2.30;;;;;;;-146.27;82.74;82918.56;5030316;28;20048;-74
2023/10/28 10:17:46;;;;;;;9.05;2.40;;;;;;;-146.27;82.23;82890.44;5029818;28;20132;-74
2023/10/28 10:20:11;;;;;;;5.38;2.10;;;;;;;-146.27;82.36;82996.91;5030346;28;20033;-75
2023/10/28 10:22:38;;;;;;;8.10;2.47;;;;;;;-146.27;82.08;82920.56;5022945;28;20085;-73
2023/10/28 10:25:04;;;;;;;9.18;2.35;;;;;;;-146.27;82.22;82948.69;5027784;28;20477;-75
2023/10/28 10:27:47;;;;;;;4.30;2.00;;;;;;;-146.27;81.83;82898.47;5029963;28;20079;-74
2023/10/28 10:30:13;;;;;;;5.03;2.00;;;;;;;-146.27;82.03;82926.59;5024873;28;20029;-73
2023/10/28 10:32:48;;;;;;;8.55;2.33;;;;;;;-146.27;81.90;82882.41;5024777;28;20030;-74
2023/10/28 10:35:26;;;;;;;4.13;1.90;;;;;;;-146.27;81.94;82912.53;5030030;28;20440;-74
2023/10/28 10:38:09;;;;;;;5.90;2.10;;;;;;;-146.27;81.45;82896.47;5029524;28;20047;-74
2023/10/28 10:40:41;;;;;;;6.47;1.70;;;;;;;-146.27;81.31;82866.31;5030165;28;20404;-73
2023/10/28 10:43:10;;;;;;;10.43;2.40;;;;;;;-146.27;80.56;82777.94;5036988;28;20056;-73
2023/10/28 10:45:36;;;;;;;7.55;2.17;;;;;;;-146.27;80.15;82812.09;5026764;28;20109;-73
2023/10/28 10:48:08;;;;;;;6.70;1.80;;;;;;;-146.27;79.65;82765.88;5036658;28;20022;-73
2023/10/28 10:50:39;;;;;;;6.90;2.38;;;;;;;-146.27;79.59;82741.78;5031800;28;20034;-74
2023/10/28 10:53:04;;;;;;;7.28;2.13;;;;;;;-146.27;79.52;82721.69;5049396;28;20017;-74
2023/10/28 10:55:30;;;;;;;6.78;2.25;;;;;;;-146.27;78.93;82749.81;5030264;28;20083;-75
2023/10/28 10:57:56;;;;;;;11.95;1.90;;;;;;;-146.27;79.31;82739.75;5027418;28;20025;-71
2023/10/28 11:00:23;;;;;;;8.02;2.28;;;;;;;-146.27;79.04;82745.78;5033170;28;20040;-76
2023/10/28 11:02:49;;;;;;;6.95;1.88;;;;;;;-146.27;78.92;82834.19;5042251;28;20053;-76
2023/10/28 11:05:16;;;;;;;8.35;2.08;;;;;;;-146.27;78.88;82775.91;5032225;28;20532;-76
2023/10/28 11:07:42;;;;;;;8.32;1.88;;;;;;;-146.27;78.76;82733.72;5035480;28;20037;-75
2023/10/28 11:10:08;;;;;;;8.90;2.03;;;;;;;-146.27;78.37;82731.72;5027524;28;20038;-77